sensor_id;sensor_type;location;lat;lon;timestamp;P1;durP1;ratioP1;P2;durP2;ratioP2
52047;SDS011;46904;49.438;8.752;2023-03-01T00:57:39;10.20;;;6.57;;
52047;SDS011;46904;49.438;8.752;2023-03-01T01:00:30;11.90;;;8.13;;
52047;SDS011;46904;49.438;8.752;2023-03-01T01:03:29;11.45;;;7.40;;
52047;SDS011;46904;49.438;8.752;2023-03-01T01:06:23;9.73;;;6.65;;
52047;SDS011;46904;49.438;8.752;2023-03-01T01:12:26;11.20;;;7.80;;
52047;SDS011;46904;49.438;8.752;2023-03-01T01:25:08;9.57;;;6.72;;
52047;SDS011;46904;49.438;8.752;2023-03-01T01:31:05;11.90;;;7.65;;
52047;SDS011;46904;49.438;8.752;2023-03-01T01:34:00;12.13;;;7.57;;
52047;SDS011;46904;49.438;8.752;2023-03-01T01:36:57;10.77;;;6.63;;
52047;SDS011;46904;49.438;8.752;2023-03-01T01:43:04;9.02;;;7.15;;
52047;SDS011;46904;49.438;8.752;2023-03-01T01:59:03;10.82;;;6.97;;
52047;SDS011;46904;49.438;8.752;2023-03-01T02:02:11;9.70;;;6.97;;
52047;SDS011;46904;49.438;8.752;2023-03-01T02:08:39;13.07;;;7.30;;
52047;SDS011;46904;49.438;8.752;2023-03-01T02:18:17;10.07;;;7.38;;
52047;SDS011;46904;49.438;8.752;2023-03-01T02:27:19;13.07;;;7.00;;
52047;SDS011;46904;49.438;8.752;2023-03-01T02:33:10;11.02;;;7.25;;
52047;SDS011;46904;49.438;8.752;2023-03-01T02:39:44;11.00;;;7.43;;
52047;SDS011;46904;49.438;8.752;2023-03-01T02:45:57;9.95;;;7.22;;
52047;SDS011;46904;49.438;8.752;2023-03-01T03:02:00;10.85;;;7.00;;
52047;SDS011;46904;49.438;8.752;2023-03-01T03:04:53;12.18;;;7.63;;
52047;SDS011;46904;49.438;8.752;2023-03-01T03:07:49;12.65;;;7.82;;
52047;SDS011;46904;49.438;8.752;2023-03-01T03:10:46;11.27;;;7.97;;
52047;SDS011;46904;49.438;8.752;2023-03-01T03:13:42;11.75;;;7.97;;
52047;SDS011;46904;49.438;8.752;2023-03-01T03:16:33;14.55;;;8.10;;
52047;SDS011;46904;49.438;8.752;2023-03-01T03:19:27;15.63;;;7.78;;
52047;SDS011;46904;49.438;8.752;2023-03-01T03:22:27;11.75;;;7.35;;
52047;SDS011;46904;49.438;8.752;2023-03-01T03:25:23;11.20;;;7.05;;
52047;SDS011;46904;49.438;8.752;2023-03-01T03:28:15;11.65;;;7.80;;
52047;SDS011;46904;49.438;8.752;2023-03-01T03:31:06;11.18;;;7.85;;
52047;SDS011;46904;49.438;8.752;2023-03-01T03:37:11;11.57;;;7.20;;
52047;SDS011;46904;49.438;8.752;2023-03-01T03:40:02;12.80;;;8.07;;
52047;SDS011;46904;49.438;8.752;2023-03-01T03:42:54;12.80;;;7.95;;
52047;SDS011;46904;49.438;8.752;2023-03-01T03:45:45;12.18;;;7.63;;
52047;SDS011;46904;49.438;8.752;2023-03-01T03:48:42;12.15;;;7.47;;
52047;SDS011;46904;49.438;8.752;2023-03-01T03:51:38;12.65;;;8.00;;
52047;SDS011;46904;49.438;8.752;2023-03-01T03:54:29;13.13;;;7.90;;
52047;SDS011;46904;49.438;8.752;2023-03-01T03:57:19;13.77;;;7.82;;
52047;SDS011;46904;49.438;8.752;2023-03-01T04:03:38;14.80;;;8.82;;
52047;SDS011;46904;49.438;8.752;2023-03-01T04:06:34;14.63;;;8.95;;
52047;SDS011;46904;49.438;8.752;2023-03-01T04:09:36;16.08;;;8.43;;
52047;SDS011;46904;49.438;8.752;2023-03-01T04:18:52;11.23;;;7.53;;
52047;SDS011;46904;49.438;8.752;2023-03-01T04:25:18;13.75;;;8.32;;
52047;SDS011;46904;49.438;8.752;2023-03-01T04:28:08;13.73;;;8.68;;
52047;SDS011;46904;49.438;8.752;2023-03-01T04:31:05;12.25;;;8.15;;
52047;SDS011;46904;49.438;8.752;2023-03-01T04:59:42;11.77;;;7.45;;
52047;SDS011;46904;49.438;8.752;2023-03-01T05:02:42;14.30;;;8.52;;
52047;SDS011;46904;49.438;8.752;2023-03-01T05:21:51;13.68;;;7.93;;
52047;SDS011;46904;49.438;8.752;2023-03-01T05:24:44;12.23;;;8.30;;
52047;SDS011;46904;49.438;8.752;2023-03-01T05:27:44;14.77;;;8.20;;
52047;SDS011;46904;49.438;8.752;2023-03-01T05:30:56;14.25;;;8.70;;
52047;SDS011;46904;49.438;8.752;2023-03-01T05:37:14;13.63;;;7.97;;
52047;SDS011;46904;49.438;8.752;2023-03-01T06:19:51;13.43;;;8.88;;
52047;SDS011;46904;49.438;8.752;2023-03-01T06:22:52;15.20;;;8.32;;
52047;SDS011;46904;49.438;8.752;2023-03-01T06:35:41;14.77;;;8.88;;
52047;SDS011;46904;49.438;8.752;2023-03-01T08:15:13;14.38;;;9.02;;
52047;SDS011;46904;49.438;8.752;2023-03-01T08:21:42;12.00;;;7.50;;
52047;SDS011;46904;49.438;8.752;2023-03-01T08:24:32;14.30;;;8.60;;
52047;SDS011;46904;49.438;8.752;2023-03-01T08:30:35;14.20;;;9.20;;
52047;SDS011;46904;49.438;8.752;2023-03-01T08:33:25;14.75;;;9.02;;
52047;SDS011;46904;49.438;8.752;2023-03-01T08:39:31;14.35;;;8.90;;
52047;SDS011;46904;49.438;8.752;2023-03-01T08:42:22;15.18;;;9.43;;
52047;SDS011;46904;49.438;8.752;2023-03-01T08:45:16;12.57;;;8.73;;
52047;SDS011;46904;49.438;8.752;2023-03-01T08:48:06;15.27;;;9.65;;
52047;SDS011;46904;49.438;8.752;2023-03-01T08:51:06;16.17;;;9.32;;
52047;SDS011;46904;49.438;8.752;2023-03-01T08:54:16;14.90;;;9.27;;
52047;SDS011;46904;49.438;8.752;2023-03-01T08:57:16;15.25;;;9.00;;
52047;SDS011;46904;49.438;8.752;2023-03-01T09:02:57;13.20;;;8.57;;
52047;SDS011;46904;49.438;8.752;2023-03-01T09:05:48;14.25;;;9.38;;
52047;SDS011;46904;49.438;8.752;2023-03-01T09:08:39;13.80;;;8.25;;
52047;SDS011;46904;49.438;8.752;2023-03-01T09:11:30;14.15;;;9.27;;
52047;SDS011;46904;49.438;8.752;2023-03-01T09:14:21;13.48;;;9.38;;
52047;SDS011;46904;49.438;8.752;2023-03-01T09:17:12;14.27;;;10.27;;
52047;SDS011;46904;49.438;8.752;2023-03-01T09:20:02;14.32;;;9.38;;
52047;SDS011;46904;49.438;8.752;2023-03-01T09:22:53;16.15;;;9.50;;
52047;SDS011;46904;49.438;8.752;2023-03-01T09:25:44;15.45;;;9.65;;
52047;SDS011;46904;49.438;8.752;2023-03-01T09:28:36;17.02;;;10.25;;
52047;SDS011;46904;49.438;8.752;2023-03-01T09:31:26;16.00;;;10.25;;
52047;SDS011;46904;49.438;8.752;2023-03-01T09:34:17;15.98;;;10.63;;
52047;SDS011;46904;49.438;8.752;2023-03-01T09:37:08;15.38;;;10.15;;
52047;SDS011;46904;49.438;8.752;2023-03-01T09:39:59;14.10;;;10.15;;
52047;SDS011;46904;49.438;8.752;2023-03-01T09:42:54;14.82;;;9.80;;
52047;SDS011;46904;49.438;8.752;2023-03-01T09:45:46;13.68;;;8.95;;
52047;SDS011;46904;49.438;8.752;2023-03-01T09:48:42;14.30;;;9.85;;
52047;SDS011;46904;49.438;8.752;2023-03-01T09:51:34;13.07;;;9.15;;
52047;SDS011;46904;49.438;8.752;2023-03-01T09:54:25;14.88;;;9.70;;
52047;SDS011;46904;49.438;8.752;2023-03-01T10:03:26;15.90;;;10.50;;
52047;SDS011;46904;49.438;8.752;2023-03-01T10:06:21;18.67;;;11.07;;
52047;SDS011;46904;49.438;8.752;2023-03-01T10:09:13;13.00;;;9.07;;
52047;SDS011;46904;49.438;8.752;2023-03-01T10:12:08;14.38;;;8.98;;
52047;SDS011;46904;49.438;8.752;2023-03-01T10:17:57;13.32;;;8.38;;
52047;SDS011;46904;49.438;8.752;2023-03-01T10:23:43;13.82;;;8.77;;
52047;SDS011;46904;49.438;8.752;2023-03-01T10:30:05;12.95;;;8.43;;
52047;SDS011;46904;49.438;8.752;2023-03-01T10:32:53;12.20;;;8.45;;
52047;SDS011;46904;49.438;8.752;2023-03-01T10:35:47;12.68;;;8.48;;
52047;SDS011;46904;49.438;8.752;2023-03-01T10:38:51;11.57;;;8.00;;
52047;SDS011;46904;49.438;8.752;2023-03-01T10:53:51;13.30;;;8.63;;
52047;SDS011;46904;49.438;8.752;2023-03-01T10:56:51;11.70;;;8.52;;
52047;SDS011;46904;49.438;8.752;2023-03-01T10:59:42;11.63;;;7.93;;
52047;SDS011;46904;49.438;8.752;2023-03-01T11:02:32;11.55;;;8.07;;
52047;SDS011;46904;49.438;8.752;2023-03-01T11:05:23;10.35;;;7.60;;
52047;SDS011;46904;49.438;8.752;2023-03-01T11:08:14;10.10;;;7.57;;
52047;SDS011;46904;49.438;8.752;2023-03-01T11:17:05;9.10;;;7.30;;
52047;SDS011;46904;49.438;8.752;2023-03-01T11:23:03;11.23;;;9.38;;
52047;SDS011;46904;49.438;8.752;2023-03-01T11:26:05;11.65;;;9.32;;
52047;SDS011;46904;49.438;8.752;2023-03-01T11:28:58;11.05;;;8.38;;
52047;SDS011;46904;49.438;8.752;2023-03-01T11:31:50;10.48;;;8.48;;
52047;SDS011;46904;49.438;8.752;2023-03-01T11:35:44;9.98;;;8.38;;
52047;SDS011;46904;49.438;8.752;2023-03-01T11:56:05;10.43;;;7.53;;
52047;SDS011;46904;49.438;8.752;2023-03-01T11:58:57;10.18;;;7.90;;
52047;SDS011;46904;49.438;8.752;2023-03-01T12:02:10;9.18;;;7.50;;
52047;SDS011;46904;49.438;8.752;2023-03-01T12:08:04;10.77;;;8.05;;
52047;SDS011;46904;49.438;8.752;2023-03-01T12:23:02;10.77;;;8.25;;
52047;SDS011;46904;49.438;8.752;2023-03-01T12:29:02;9.32;;;8.13;;
52047;SDS011;46904;49.438;8.752;2023-03-01T12:35:22;12.18;;;9.98;;
52047;SDS011;46904;49.438;8.752;2023-03-01T12:47:26;10.73;;;8.20;;
52047;SDS011;46904;49.438;8.752;2023-03-01T12:50:19;9.30;;;8.40;;
52047;SDS011;46904;49.438;8.752;2023-03-01T12:53:36;9.48;;;8.48;;
52047;SDS011;46904;49.438;8.752;2023-03-01T12:56:28;10.15;;;7.97;;
52047;SDS011;46904;49.438;8.752;2023-03-01T12:59:26;9.27;;;8.27;;
52047;SDS011;46904;49.438;8.752;2023-03-01T13:02:36;11.00;;;7.78;;
52047;SDS011;46904;49.438;8.752;2023-03-01T13:05:45;9.15;;;7.65;;
52047;SDS011;46904;49.438;8.752;2023-03-01T13:08:43;9.93;;;7.47;;
52047;SDS011;46904;49.438;8.752;2023-03-01T13:11:33;9.00;;;8.02;;
52047;SDS011;46904;49.438;8.752;2023-03-01T13:17:31;9.32;;;8.35;;
52047;SDS011;46904;49.438;8.752;2023-03-01T13:20:33;8.40;;;7.53;;
52047;SDS011;46904;49.438;8.752;2023-03-01T13:23:26;11.07;;;8.40;;
52047;SDS011;46904;49.438;8.752;2023-03-01T13:26:17;10.60;;;8.55;;
52047;SDS011;46904;49.438;8.752;2023-03-01T13:29:11;8.75;;;7.50;;
52047;SDS011;46904;49.438;8.752;2023-03-01T13:44:33;10.32;;;7.95;;
52047;SDS011;46904;49.438;8.752;2023-03-01T13:47:24;9.20;;;7.65;;
52047;SDS011;46904;49.438;8.752;2023-03-01T13:51:15;8.88;;;7.95;;
52047;SDS011;46904;49.438;8.752;2023-03-01T13:53:35;8.68;;;7.63;;
52047;SDS011;46904;49.438;8.752;2023-03-01T13:56:33;7.85;;;7.05;;
52047;SDS011;46904;49.438;8.752;2023-03-01T13:59:26;8.10;;;7.30;;
52047;SDS011;46904;49.438;8.752;2023-03-01T14:02:17;8.25;;;7.30;;
52047;SDS011;46904;49.438;8.752;2023-03-01T14:05:08;8.80;;;7.80;;
52047;SDS011;46904;49.438;8.752;2023-03-01T14:07:59;10.25;;;6.78;;
52047;SDS011;46904;49.438;8.752;2023-03-01T14:11:34;8.93;;;6.82;;
52047;SDS011;46904;49.438;8.752;2023-03-01T14:14:17;9.70;;;6.80;;
52047;SDS011;46904;49.438;8.752;2023-03-01T14:20:29;8.05;;;6.93;;
52047;SDS011;46904;49.438;8.752;2023-03-01T14:23:21;9.13;;;7.47;;
52047;SDS011;46904;49.438;8.752;2023-03-01T14:26:12;8.38;;;7.38;;
52047;SDS011;46904;49.438;8.752;2023-03-01T14:29:02;11.23;;;7.30;;
52047;SDS011;46904;49.438;8.752;2023-03-01T14:31:53;9.52;;;7.68;;
52047;SDS011;46904;49.438;8.752;2023-03-01T14:34:45;9.45;;;7.57;;
52047;SDS011;46904;49.438;8.752;2023-03-01T14:37:36;8.20;;;7.10;;
52047;SDS011;46904;49.438;8.752;2023-03-01T14:43:17;9.02;;;7.07;;
52047;SDS011;46904;49.438;8.752;2023-03-01T14:46:19;8.55;;;6.75;;
52047;SDS011;46904;49.438;8.752;2023-03-01T14:49:20;8.90;;;6.55;;
52047;SDS011;46904;49.438;8.752;2023-03-01T14:52:18;8.55;;;6.30;;
52047;SDS011;46904;49.438;8.752;2023-03-01T14:55:18;9.02;;;7.00;;
52047;SDS011;46904;49.438;8.752;2023-03-01T14:58:12;7.90;;;6.88;;
52047;SDS011;46904;49.438;8.752;2023-03-01T15:01:03;8.57;;;6.97;;
52047;SDS011;46904;49.438;8.752;2023-03-01T15:03:54;8.32;;;6.47;;
52047;SDS011;46904;49.438;8.752;2023-03-01T15:06:45;9.45;;;7.32;;
52047;SDS011;46904;49.438;8.752;2023-03-01T15:09:39;7.60;;;6.55;;
52047;SDS011;46904;49.438;8.752;2023-03-01T15:15:30;7.85;;;6.40;;
52047;SDS011;46904;49.438;8.752;2023-03-01T15:18:27;7.63;;;6.18;;
52047;SDS011;46904;49.438;8.752;2023-03-01T15:21:20;7.75;;;6.65;;
52047;SDS011;46904;49.438;8.752;2023-03-01T15:27:01;8.40;;;6.95;;
52047;SDS011;46904;49.438;8.752;2023-03-01T15:32:42;8.38;;;6.68;;
52047;SDS011;46904;49.438;8.752;2023-03-01T15:38:30;9.23;;;6.93;;
52047;SDS011;46904;49.438;8.752;2023-03-01T15:41:23;9.23;;;6.28;;
52047;SDS011;46904;49.438;8.752;2023-03-01T15:44:23;8.77;;;5.95;;
52047;SDS011;46904;49.438;8.752;2023-03-01T15:47:28;7.40;;;5.50;;
52047;SDS011;46904;49.438;8.752;2023-03-01T15:50:36;8.63;;;6.68;;
52047;SDS011;46904;49.438;8.752;2023-03-01T15:53:27;7.75;;;6.00;;
52047;SDS011;46904;49.438;8.752;2023-03-01T15:56:18;8.75;;;6.32;;
52047;SDS011;46904;49.438;8.752;2023-03-01T15:59:09;7.03;;;5.55;;
52047;SDS011;46904;49.438;8.752;2023-03-01T16:02:00;10.48;;;7.30;;
52047;SDS011;46904;49.438;8.752;2023-03-01T16:04:50;8.65;;;5.63;;
52047;SDS011;46904;49.438;8.752;2023-03-01T16:07:41;8.10;;;5.85;;
52047;SDS011;46904;49.438;8.752;2023-03-01T16:10:32;6.50;;;5.18;;
52047;SDS011;46904;49.438;8.752;2023-03-01T16:13:22;9.95;;;5.43;;
52047;SDS011;46904;49.438;8.752;2023-03-01T16:16:14;6.93;;;5.20;;
52047;SDS011;46904;49.438;8.752;2023-03-01T16:19:04;7.63;;;5.43;;
52047;SDS011;46904;49.438;8.752;2023-03-01T16:21:55;9.00;;;5.78;;
52047;SDS011;46904;49.438;8.752;2023-03-01T16:24:45;8.93;;;5.85;;
52047;SDS011;46904;49.438;8.752;2023-03-01T16:27:35;8.57;;;5.75;;
52047;SDS011;46904;49.438;8.752;2023-03-01T16:30:26;7.97;;;5.75;;
52047;SDS011;46904;49.438;8.752;2023-03-01T16:33:17;9.40;;;5.68;;
52047;SDS011;46904;49.438;8.752;2023-03-01T16:36:08;8.77;;;5.55;;
52047;SDS011;46904;49.438;8.752;2023-03-01T16:38:59;12.38;;;5.70;;
52047;SDS011;46904;49.438;8.752;2023-03-01T16:41:50;8.27;;;6.00;;
52047;SDS011;46904;49.438;8.752;2023-03-01T16:44:40;8.63;;;5.82;;
52047;SDS011;46904;49.438;8.752;2023-03-01T16:47:31;10.27;;;6.03;;
52047;SDS011;46904;49.438;8.752;2023-03-01T16:50:23;9.38;;;6.28;;
52047;SDS011;46904;49.438;8.752;2023-03-01T16:53:14;13.95;;;9.20;;
52047;SDS011;46904;49.438;8.752;2023-03-01T16:56:05;19.42;;;12.23;;
52047;SDS011;46904;49.438;8.752;2023-03-01T16:58:56;18.30;;;11.60;;
52047;SDS011;46904;49.438;8.752;2023-03-01T17:01:46;15.07;;;9.40;;
52047;SDS011;46904;49.438;8.752;2023-03-01T17:04:36;12.25;;;8.30;;
52047;SDS011;46904;49.438;8.752;2023-03-01T17:07:28;10.13;;;6.95;;
52047;SDS011;46904;49.438;8.752;2023-03-01T17:10:19;10.32;;;7.18;;
52047;SDS011;46904;49.438;8.752;2023-03-01T17:13:09;10.32;;;7.43;;
52047;SDS011;46904;49.438;8.752;2023-03-01T17:16:05;9.40;;;6.72;;
52047;SDS011;46904;49.438;8.752;2023-03-01T17:18:56;9.52;;;7.10;;
52047;SDS011;46904;49.438;8.752;2023-03-01T17:21:46;9.18;;;6.55;;
52047;SDS011;46904;49.438;8.752;2023-03-01T17:24:37;10.50;;;6.47;;
52047;SDS011;46904;49.438;8.752;2023-03-01T17:27:27;10.68;;;7.15;;
52047;SDS011;46904;49.438;8.752;2023-03-01T17:30:18;10.23;;;7.03;;
52047;SDS011;46904;49.438;8.752;2023-03-01T17:33:10;12.07;;;9.02;;
52047;SDS011;46904;49.438;8.752;2023-03-01T17:36:00;11.73;;;8.68;;
52047;SDS011;46904;49.438;8.752;2023-03-01T17:38:51;14.48;;;9.60;;
52047;SDS011;46904;49.438;8.752;2023-03-01T17:41:42;14.60;;;10.25;;
52047;SDS011;46904;49.438;8.752;2023-03-01T17:44:32;13.50;;;8.90;;
52047;SDS011;46904;49.438;8.752;2023-03-01T17:47:23;11.95;;;8.40;;
52047;SDS011;46904;49.438;8.752;2023-03-01T17:50:14;8.98;;;6.95;;
52047;SDS011;46904;49.438;8.752;2023-03-01T17:53:06;10.98;;;7.05;;
52047;SDS011;46904;49.438;8.752;2023-03-01T17:56:00;9.23;;;6.82;;
52047;SDS011;46904;49.438;8.752;2023-03-01T17:58:50;11.02;;;6.57;;
52047;SDS011;46904;49.438;8.752;2023-03-01T18:01:41;10.00;;;6.90;;
52047;SDS011;46904;49.438;8.752;2023-03-01T18:04:31;9.70;;;6.88;;
52047;SDS011;46904;49.438;8.752;2023-03-01T18:07:24;12.55;;;7.18;;
52047;SDS011;46904;49.438;8.752;2023-03-01T18:10:15;11.98;;;7.93;;
52047;SDS011;46904;49.438;8.752;2023-03-01T18:13:05;10.10;;;6.57;;
52047;SDS011;46904;49.438;8.752;2023-03-01T18:15:56;14.77;;;9.07;;
52047;SDS011;46904;49.438;8.752;2023-03-01T18:18:51;22.23;;;13.40;;
52047;SDS011;46904;49.438;8.752;2023-03-01T18:21:41;20.27;;;11.38;;
52047;SDS011;46904;49.438;8.752;2023-03-01T18:24:31;19.90;;;12.05;;
52047;SDS011;46904;49.438;8.752;2023-03-01T18:27:22;18.95;;;12.23;;
52047;SDS011;46904;49.438;8.752;2023-03-01T18:30:13;17.17;;;10.85;;
52047;SDS011;46904;49.438;8.752;2023-03-01T18:33:03;14.35;;;9.90;;
52047;SDS011;46904;49.438;8.752;2023-03-01T18:35:53;12.30;;;7.63;;
52047;SDS011;46904;49.438;8.752;2023-03-01T18:38:44;9.70;;;6.90;;
52047;SDS011;46904;49.438;8.752;2023-03-01T18:41:35;9.80;;;6.57;;
52047;SDS011;46904;49.438;8.752;2023-03-01T18:44:26;10.50;;;6.90;;
52047;SDS011;46904;49.438;8.752;2023-03-01T18:47:18;11.70;;;6.90;;
52047;SDS011;46904;49.438;8.752;2023-03-01T18:50:08;11.50;;;7.15;;
52047;SDS011;46904;49.438;8.752;2023-03-01T18:52:59;12.85;;;8.57;;
52047;SDS011;46904;49.438;8.752;2023-03-01T18:55:50;10.27;;;7.13;;
52047;SDS011;46904;49.438;8.752;2023-03-01T18:58:41;11.38;;;7.60;;
52047;SDS011;46904;49.438;8.752;2023-03-01T19:01:34;29.48;;;16.50;;
52047;SDS011;46904;49.438;8.752;2023-03-01T19:04:24;19.40;;;12.60;;
52047;SDS011;46904;49.438;8.752;2023-03-01T19:07:16;20.40;;;12.82;;
52047;SDS011;46904;49.438;8.752;2023-03-01T19:10:06;14.52;;;10.38;;
52047;SDS011;46904;49.438;8.752;2023-03-01T19:12:57;16.08;;;10.18;;
52047;SDS011;46904;49.438;8.752;2023-03-01T19:15:48;13.90;;;9.18;;
52047;SDS011;46904;49.438;8.752;2023-03-01T19:18:42;14.93;;;7.57;;
52047;SDS011;46904;49.438;8.752;2023-03-01T19:21:34;11.90;;;7.93;;
52047;SDS011;46904;49.438;8.752;2023-03-01T19:24:24;11.63;;;7.72;;
52047;SDS011;46904;49.438;8.752;2023-03-01T19:27:15;9.60;;;6.78;;
52047;SDS011;46904;49.438;8.752;2023-03-01T19:30:07;10.57;;;7.57;;
52047;SDS011;46904;49.438;8.752;2023-03-01T19:32:57;10.55;;;7.43;;
52047;SDS011;46904;49.438;8.752;2023-03-01T19:35:47;13.38;;;7.53;;
52047;SDS011;46904;49.438;8.752;2023-03-01T19:38:39;16.42;;;8.40;;
52047;SDS011;46904;49.438;8.752;2023-03-01T19:41:30;14.23;;;8.20;;
52047;SDS011;46904;49.438;8.752;2023-03-01T19:44:21;11.85;;;7.50;;
52047;SDS011;46904;49.438;8.752;2023-03-01T19:47:11;11.85;;;7.38;;
52047;SDS011;46904;49.438;8.752;2023-03-01T19:50:02;11.20;;;7.72;;
52047;SDS011;46904;49.438;8.752;2023-03-01T19:52:53;10.23;;;6.97;;
52047;SDS011;46904;49.438;8.752;2023-03-01T19:55:43;10.77;;;6.90;;
52047;SDS011;46904;49.438;8.752;2023-03-01T19:58:37;11.43;;;7.93;;
52047;SDS011;46904;49.438;8.752;2023-03-01T20:01:30;10.30;;;7.13;;
52047;SDS011;46904;49.438;8.752;2023-03-01T20:04:21;10.40;;;6.97;;
52047;SDS011;46904;49.438;8.752;2023-03-01T20:07:12;10.98;;;8.05;;
52047;SDS011;46904;49.438;8.752;2023-03-01T20:10:02;10.35;;;7.82;;
52047;SDS011;46904;49.438;8.752;2023-03-01T20:12:53;12.40;;;7.75;;
52047;SDS011;46904;49.438;8.752;2023-03-01T20:15:44;11.07;;;7.13;;
52047;SDS011;46904;49.438;8.752;2023-03-01T20:18:35;12.88;;;8.32;;
52047;SDS011;46904;49.438;8.752;2023-03-01T20:21:26;12.85;;;9.30;;
52047;SDS011;46904;49.438;8.752;2023-03-01T20:24:16;13.93;;;8.68;;
52047;SDS011;46904;49.438;8.752;2023-03-01T20:27:06;15.43;;;9.18;;
52047;SDS011;46904;49.438;8.752;2023-03-01T20:30:00;14.00;;;8.80;;
52047;SDS011;46904;49.438;8.752;2023-03-01T20:32:52;12.57;;;8.45;;
52047;SDS011;46904;49.438;8.752;2023-03-01T20:35:42;14.75;;;8.57;;
52047;SDS011;46904;49.438;8.752;2023-03-01T20:38:33;18.85;;;10.10;;
52047;SDS011;46904;49.438;8.752;2023-03-01T20:41:24;16.70;;;9.40;;
52047;SDS011;46904;49.438;8.752;2023-03-01T20:44:15;15.27;;;9.23;;
52047;SDS011;46904;49.438;8.752;2023-03-01T20:47:05;14.80;;;9.40;;
52047;SDS011;46904;49.438;8.752;2023-03-01T20:49:57;14.93;;;8.68;;
52047;SDS011;46904;49.438;8.752;2023-03-01T20:52:47;11.20;;;8.15;;
52047;SDS011;46904;49.438;8.752;2023-03-01T20:55:38;11.93;;;8.48;;
52047;SDS011;46904;49.438;8.752;2023-03-01T20:58:29;12.35;;;8.57;;
52047;SDS011;46904;49.438;8.752;2023-03-01T21:01:20;14.30;;;8.77;;
52047;SDS011;46904;49.438;8.752;2023-03-01T21:04:11;11.48;;;8.07;;
52047;SDS011;46904;49.438;8.752;2023-03-01T21:07:01;15.27;;;10.13;;
52047;SDS011;46904;49.438;8.752;2023-03-01T21:09:51;20.52;;;10.60;;
52047;SDS011;46904;49.438;8.752;2023-03-01T21:12:45;19.80;;;10.95;;
52047;SDS011;46904;49.438;8.752;2023-03-01T21:15:36;20.25;;;10.65;;
52047;SDS011;46904;49.438;8.752;2023-03-01T21:18:27;15.95;;;9.73;;
52047;SDS011;46904;49.438;8.752;2023-03-01T21:21:18;21.00;;;11.63;;
52047;SDS011;46904;49.438;8.752;2023-03-01T21:24:09;19.10;;;11.35;;
52047;SDS011;46904;49.438;8.752;2023-03-01T21:27:00;18.20;;;11.00;;
52047;SDS011;46904;49.438;8.752;2023-03-01T21:29:50;16.50;;;10.45;;
52047;SDS011;46904;49.438;8.752;2023-03-01T21:32:40;14.10;;;9.02;;
52047;SDS011;46904;49.438;8.752;2023-03-01T21:35:30;15.48;;;10.43;;
52047;SDS011;46904;49.438;8.752;2023-03-01T21:38:21;16.98;;;10.35;;
52047;SDS011;46904;49.438;8.752;2023-03-01T21:41:16;18.27;;;10.15;;
52047;SDS011;46904;49.438;8.752;2023-03-01T21:44:07;15.75;;;10.50;;
52047;SDS011;46904;49.438;8.752;2023-03-01T21:46:57;16.25;;;10.55;;
52047;SDS011;46904;49.438;8.752;2023-03-01T21:49:48;17.20;;;10.30;;
52047;SDS011;46904;49.438;8.752;2023-03-01T21:52:40;19.23;;;12.23;;
52047;SDS011;46904;49.438;8.752;2023-03-01T21:55:33;18.90;;;10.85;;
52047;SDS011;46904;49.438;8.752;2023-03-01T21:58:24;17.45;;;10.75;;
52047;SDS011;46904;49.438;8.752;2023-03-01T22:01:15;17.60;;;9.68;;
52047;SDS011;46904;49.438;8.752;2023-03-01T22:04:06;16.42;;;9.82;;
52047;SDS011;46904;49.438;8.752;2023-03-01T22:06:56;15.70;;;8.98;;
52047;SDS011;46904;49.438;8.752;2023-03-01T22:09:48;16.38;;;11.55;;
52047;SDS011;46904;49.438;8.752;2023-03-01T22:12:38;13.65;;;9.32;;
52047;SDS011;46904;49.438;8.752;2023-03-01T22:15:29;14.50;;;10.35;;
52047;SDS011;46904;49.438;8.752;2023-03-01T22:18:19;16.38;;;10.30;;
52047;SDS011;46904;49.438;8.752;2023-03-01T22:21:09;15.32;;;10.32;;
52047;SDS011;46904;49.438;8.752;2023-03-01T22:23:59;18.13;;;10.63;;
52047;SDS011;46904;49.438;8.752;2023-03-01T22:26:50;18.52;;;10.30;;
52047;SDS011;46904;49.438;8.752;2023-03-01T22:29:40;16.90;;;10.52;;
52047;SDS011;46904;49.438;8.752;2023-03-01T22:32:30;15.68;;;10.18;;
52047;SDS011;46904;49.438;8.752;2023-03-01T22:35:21;15.63;;;10.30;;
52047;SDS011;46904;49.438;8.752;2023-03-01T22:38:12;16.08;;;10.20;;
52047;SDS011;46904;49.438;8.752;2023-03-01T22:41:03;15.88;;;9.32;;
52047;SDS011;46904;49.438;8.752;2023-03-01T22:43:54;17.65;;;10.77;;
52047;SDS011;46904;49.438;8.752;2023-03-01T22:46:45;15.85;;;10.70;;
52047;SDS011;46904;49.438;8.752;2023-03-01T22:49:36;16.30;;;10.32;;
52047;SDS011;46904;49.438;8.752;2023-03-01T22:52:26;15.55;;;10.23;;
52047;SDS011;46904;49.438;8.752;2023-03-01T22:55:17;16.00;;;10.25;;
52047;SDS011;46904;49.438;8.752;2023-03-01T22:58:09;17.30;;;10.13;;
52047;SDS011;46904;49.438;8.752;2023-03-01T23:01:07;16.50;;;10.15;;
52047;SDS011;46904;49.438;8.752;2023-03-01T23:03:57;17.23;;;10.52;;
52047;SDS011;46904;49.438;8.752;2023-03-01T23:06:48;16.42;;;10.90;;
52047;SDS011;46904;49.438;8.752;2023-03-01T23:09:38;18.20;;;11.43;;
52047;SDS011;46904;49.438;8.752;2023-03-01T23:12:28;17.42;;;10.90;;
52047;SDS011;46904;49.438;8.752;2023-03-01T23:15:18;16.42;;;10.68;;
52047;SDS011;46904;49.438;8.752;2023-03-01T23:18:09;15.55;;;10.05;;
52047;SDS011;46904;49.438;8.752;2023-03-01T23:21:13;17.83;;;11.10;;
52047;SDS011;46904;49.438;8.752;2023-03-01T23:24:07;16.88;;;10.10;;
52047;SDS011;46904;49.438;8.752;2023-03-01T23:26:58;18.90;;;11.05;;
52047;SDS011;46904;49.438;8.752;2023-03-01T23:29:50;15.95;;;10.48;;
52047;SDS011;46904;49.438;8.752;2023-03-01T23:32:41;18.10;;;11.20;;
52047;SDS011;46904;49.438;8.752;2023-03-01T23:35:31;15.48;;;10.25;;
52047;SDS011;46904;49.438;8.752;2023-03-01T23:41:21;16.70;;;10.95;;
52047;SDS011;46904;49.438;8.752;2023-03-01T23:44:15;16.30;;;10.45;;
52047;SDS011;46904;49.438;8.752;2023-03-01T23:47:06;17.08;;;10.50;;
52047;SDS011;46904;49.438;8.752;2023-03-01T23:49:57;15.95;;;10.45;;
52047;SDS011;46904;49.438;8.752;2023-03-01T23:52:48;15.55;;;10.43;;
52047;SDS011;46904;49.438;8.752;2023-03-01T23:55:41;16.15;;;10.35;;
52047;SDS011;46904;49.438;8.752;2023-03-01T23:58:32;18.67;;;11.05;;
